ENTO/TRF METAR and TAF weather

Enter ICAO airport designator
Station Type Date Time Source
ENTO METAR 2019/04/18 20:50 UTC NOAA

ENTO 182050Z 22002KT CAVOK 11/M00 Q1037 NOSIG


Station Type Date Time Source
ENTO Decoded METAR 2019/04/18 20:50 UTC NOAA

Torp, Norway (ENTO) 59-12N 010-16E 88M
Apr 18, 2019 - 04:50 PM EDT / 2019.04.18 2050 UTC
Wind: from the SW (220 degrees) at 2 MPH (2 KT):0
Visibility: greater than 7 mile(s):0
Temperature: 51 F (11 C)
Dew Point: 32 F (0 C)
Relative Humidity: 46%
Pressure (altimeter): 30.62 in. Hg (1037 hPa)
ob: ENTO 182050Z 22002KT CAVOK 11/M00 Q1037 NOSIG
cycle: 21

Station Type Date Time Source
ENTO TAF 2019/04/18 18:59 UTC NOAA

TAF ENTO 181700Z 1818/1918 VRB05KT CAVOK

Example: see airport list